Time;durP1;ratioP1;P1;durP2;ratioP2;P2;SDS_P1;SDS_P2;PMS_P1;PMS_P2;Temp;Humidity;BMP_temperature;BMP_pressure;BME280_temperature;BME280_humidity;BME280_pressure;Samples;Min_cycle;Max_cycle;Signal;HPM_P1;HPM_P2
2022/05/05 00:02:24;;;;;;;10.00;5.95;;;;;;;;;;5051862;28;20206;-62
2022/05/05 00:04:49;;;;;;;14.15;6.68;;;;;;;;;;5053127;28;20199;-62
2022/05/05 00:07:15;;;;;;;14.00;6.63;;;;;;;;;;5052208;28;20248;-62
2022/05/05 00:09:40;;;;;;;12.15;6.50;;;;;;;;;;5052105;28;20670;-62
2022/05/05 00:14:50;;;;;;;12.93;6.20;;;;;;;;;;5032745;28;20254;-62
2022/05/05 00:17:16;;;;;;;11.88;6.50;;;;;;;;;;5036244;28;20690;-62
2022/05/05 00:19:41;;;;;;;13.63;7.55;;;;;;;;;;5052511;28;20288;-62
2022/05/05 00:22:07;;;;;;;12.23;7.18;;;;;;;;;;5052431;28;20211;-62
2022/05/05 00:24:32;;;;;;;13.38;7.22;;;;;;;;;;5051745;28;20568;-62
2022/05/05 00:26:58;;;;;;;12.90;7.03;;;;;;;;;;5034718;28;20239;-62
2022/05/05 00:29:23;;;;;;;11.50;6.80;;;;;;;;;;5051773;28;20560;-62
2022/05/05 00:31:48;;;;;;;16.75;7.03;;;;;;;;;;5052017;28;20552;-62
2022/05/05 00:34:14;;;;;;;15.23;6.88;;;;;;;;;;5034194;28;20227;-62
2022/05/05 00:36:39;;;;;;;13.75;7.43;;;;;;;;;;5051599;28;20211;-61
2022/05/05 00:39:04;;;;;;;14.07;6.80;;;;;;;;;;5036690;28;20224;-61
2022/05/05 00:41:32;;;;;;;11.52;7.10;;;;;;;;;;5022928;28;20211;-61
2022/05/05 00:43:57;;;;;;;19.05;7.05;;;;;;;;;;5009404;28;20303;-61
2022/05/05 00:46:22;;;;;;;17.35;7.80;;;;;;;;;;5004705;28;20287;-61
2022/05/05 00:48:48;;;;;;;14.38;6.95;;;;;;;;;;5025270;28;20224;-61
2022/05/05 00:51:13;;;;;;;14.80;6.47;;;;;;;;;;5022051;28;20222;-61
2022/05/05 00:53:38;;;;;;;15.73;6.65;;;;;;;;;;5013763;28;20711;-61
2022/05/05 00:56:05;;;;;;;14.65;6.53;;;;;;;;;;5014247;28;20223;-61
2022/05/05 00:58:30;;;;;;;11.68;6.60;;;;;;;;;;5015197;28;20274;-61
2022/05/05 01:00:55;;;;;;;13.18;6.82;;;;;;;;;;5020337;28;20894;-61
2022/05/05 01:03:21;;;;;;;14.18;6.95;;;;;;;;;;5021823;28;20212;-61
2022/05/05 01:05:47;;;;;;;17.23;7.15;;;;;;;;;;5021898;28;20218;-61
2022/05/05 01:08:12;;;;;;;15.10;7.32;;;;;;;;;;5022259;28;20221;-61
2022/05/05 01:10:37;;;;;;;16.77;7.38;;;;;;;;;;5022783;28;20768;-61
2022/05/05 01:13:02;;;;;;;14.10;6.95;;;;;;;;;;5021196;28;20701;-61
2022/05/05 01:15:29;;;;;;;13.45;7.22;;;;;;;;;;5038365;28;20214;-61
2022/05/05 01:17:54;;;;;;;12.80;7.25;;;;;;;;;;5026323;28;20206;-61
2022/05/05 01:20:22;;;;;;;13.43;7.00;;;;;;;;;;5013836;28;20236;-61
2022/05/05 01:22:47;;;;;;;13.15;7.25;;;;;;;;;;5032502;28;20203;-61
2022/05/05 01:28:11;;;;;;;13.63;7.30;;;;;;;;;;5033831;28;20221;-61
2022/05/05 01:30:38;;;;;;;14.73;7.05;;;;;;;;;;5025468;28;20318;-61
2022/05/05 01:33:11;;;;;;;13.98;7.07;;;;;;;;;;5021140;28;20238;-61
2022/05/05 01:35:36;;;;;;;13.27;7.50;;;;;;;;;;5041739;28;20215;-61
2022/05/05 01:38:02;;;;;;;13.68;7.25;;;;;;;;;;5028658;28;20703;-61
2022/05/05 01:40:27;;;;;;;12.77;7.30;;;;;;;;;;5014272;28;20712;-61
2022/05/05 01:42:52;;;;;;;16.58;7.20;;;;;;;;;;5014242;28;20674;-61
2022/05/05 01:45:17;;;;;;;14.52;7.28;;;;;;;;;;5015985;28;20334;-61
2022/05/05 01:47:43;;;;;;;16.35;7.85;;;;;;;;;;5024012;28;20744;-61
2022/05/05 01:50:08;;;;;;;13.30;7.63;;;;;;;;;;5025942;28;20219;-61
2022/05/05 01:52:33;;;;;;;11.02;6.68;;;;;;;;;;5026468;28;20203;-61
2022/05/05 01:54:59;;;;;;;17.98;7.72;;;;;;;;;;5024301;28;20569;-61
2022/05/05 01:57:24;;;;;;;13.02;7.13;;;;;;;;;;5025708;28;20573;-61
2022/05/05 01:59:50;;;;;;;18.25;8.20;;;;;;;;;;5025707;28;20307;-61
2022/05/05 02:02:15;;;;;;;11.80;7.35;;;;;;;;;;5016798;28;20219;-61
2022/05/05 02:04:40;;;;;;;12.75;7.38;;;;;;;;;;5017135;28;20254;-61
2022/05/05 02:07:05;;;;;;;17.10;7.70;;;;;;;;;;5036441;28;21430;-61
2022/05/05 02:09:31;;;;;;;12.65;7.05;;;;;;;;;;5023279;28;20212;-61
2022/05/05 02:11:56;;;;;;;12.80;7.47;;;;;;;;;;5025443;28;20575;-61
2022/05/05 02:14:27;;;;;;;14.85;7.40;;;;;;;;;;5025281;28;20216;-61
2022/05/05 02:16:52;;;;;;;13.55;7.53;;;;;;;;;;5043605;28;20206;-61
2022/05/05 02:19:18;;;;;;;13.43;7.03;;;;;;;;;;5025928;28;20246;-61
2022/05/05 02:21:43;;;;;;;15.52;7.40;;;;;;;;;;5025966;28;20203;-61
2022/05/05 02:24:08;;;;;;;14.63;7.43;;;;;;;;;;5018590;28;20216;-61
2022/05/05 02:26:33;;;;;;;14.60;7.40;;;;;;;;;;5017156;28;20204;-61
2022/05/05 02:28:59;;;;;;;14.32;7.32;;;;;;;;;;5017791;28;20806;-61
2022/05/05 02:31:25;;;;;;;12.38;7.38;;;;;;;;;;5020893;28;20266;-61
2022/05/05 02:33:50;;;;;;;14.75;7.32;;;;;;;;;;5025230;28;20219;-61
2022/05/05 02:38:59;;;;;;;18.02;7.38;;;;;;;;;;5027140;28;20242;-61
2022/05/05 02:41:24;;;;;;;14.90;6.97;;;;;;;;;;5025019;28;20724;-61
2022/05/05 02:43:49;;;;;;;12.88;6.47;;;;;;;;;;5006323;28;20212;-61
2022/05/05 02:46:15;;;;;;;19.77;6.78;;;;;;;;;;5021248;28;20211;-61
2022/05/05 02:48:40;;;;;;;15.65;7.40;;;;;;;;;;5017041;28;20662;-61
2022/05/05 02:51:05;;;;;;;13.13;7.25;;;;;;;;;;5016110;28;20204;-61
2022/05/05 02:56:16;;;;;;;16.58;6.70;;;;;;;;;;5042934;28;20273;-61
2022/05/05 02:58:41;;;;;;;14.18;7.20;;;;;;;;;;5029159;28;20227;-61
2022/05/05 03:01:08;;;;;;;12.52;7.18;;;;;;;;;;5024933;28;20208;-61
2022/05/05 03:03:33;;;;;;;13.35;6.68;;;;;;;;;;5024701;28;20219;-61
2022/05/05 03:05:59;;;;;;;13.73;7.15;;;;;;;;;;5023464;28;20588;-61
2022/05/05 03:08:24;;;;;;;13.90;7.05;;;;;;;;;;5023064;28;20769;-61
2022/05/05 03:10:49;;;;;;;12.80;6.78;;;;;;;;;;5014168;28;20212;-61
2022/05/05 03:13:14;;;;;;;11.98;6.60;;;;;;;;;;5015182;28;21140;-61
2022/05/05 03:15:40;;;;;;;10.68;6.20;;;;;;;;;;5017503;28;20246;-62
2022/05/05 03:18:05;;;;;;;12.73;6.97;;;;;;;;;;5024437;28;20226;-61
2022/05/05 03:20:30;;;;;;;14.93;6.90;;;;;;;;;;5023819;28;20243;-61
2022/05/05 03:22:55;;;;;;;15.10;6.28;;;;;;;;;;5024665;28;20342;-61
2022/05/05 03:25:21;;;;;;;12.15;6.38;;;;;;;;;;5023117;28;20566;-61
2022/05/05 03:27:46;;;;;;;11.40;6.20;;;;;;;;;;5023998;28;20216;-61
2022/05/05 03:30:11;;;;;;;11.82;6.65;;;;;;;;;;5029942;28;20863;-62
2022/05/05 03:32:37;;;;;;;10.70;6.10;;;;;;;;;;4999277;28;20992;-61
2022/05/05 03:35:02;;;;;;;11.18;6.63;;;;;;;;;;5015172;28;20686;-61
2022/05/05 03:37:28;;;;;;;12.90;6.53;;;;;;;;;;5016336;28;20211;-61
2022/05/05 03:39:53;;;;;;;12.82;6.07;;;;;;;;;;5021342;28;20307;-61
2022/05/05 03:42:19;;;;;;;13.95;6.28;;;;;;;;;;5023195;28;20354;-61
2022/05/05 03:44:44;;;;;;;13.45;6.70;;;;;;;;;;5023846;28;20212;-61
2022/05/05 03:47:09;;;;;;;16.45;7.55;;;;;;;;;;5023116;28;20234;-61
2022/05/05 03:49:34;;;;;;;13.02;7.47;;;;;;;;;;5024558;28;20216;-61
2022/05/05 03:52:00;;;;;;;13.55;6.22;;;;;;;;;;5023736;28;20308;-61
2022/05/05 03:54:26;;;;;;;16.00;7.00;;;;;;;;;;5018441;28;20231;-61
2022/05/05 03:56:51;;;;;;;11.23;6.22;;;;;;;;;;5015355;28;20285;-62
2022/05/05 03:59:16;;;;;;;15.93;7.05;;;;;;;;;;4997812;28;20694;-62
2022/05/05 04:01:42;;;;;;;13.80;7.30;;;;;;;;;;5018751;28;20208;-62
2022/05/05 04:04:07;;;;;;;14.85;7.07;;;;;;;;;;5022954;28;20526;-62
2022/05/05 04:06:32;;;;;;;12.82;6.93;;;;;;;;;;5023317;28;20293;-62
2022/05/05 04:08:58;;;;;;;13.38;6.90;;;;;;;;;;5025947;28;20215;-61
2022/05/05 04:11:23;;;;;;;12.20;6.40;;;;;;;;;;5022112;28;20230;-62
2022/05/05 04:13:48;;;;;;;15.63;6.90;;;;;;;;;;5023219;28;20671;-61
2022/05/05 04:16:13;;;;;;;12.52;6.93;;;;;;;;;;5021068;28;20266;-61
2022/05/05 04:18:39;;;;;;;14.68;7.45;;;;;;;;;;5016265;28;20227;-62
2022/05/05 04:21:05;;;;;;;15.93;7.50;;;;;;;;;;5025548;28;20243;-61
2022/05/05 04:23:30;;;;;;;13.82;7.38;;;;;;;;;;5014906;28;20210;-61
2022/05/05 04:25:55;;;;;;;13.88;7.47;;;;;;;;;;5022966;28;20674;-62
2022/05/05 04:28:21;;;;;;;12.68;7.47;;;;;;;;;;5023115;28;20306;-62
2022/05/05 04:30:46;;;;;;;13.65;7.35;;;;;;;;;;5022569;28;20580;-61
2022/05/05 04:33:11;;;;;;;13.80;7.55;;;;;;;;;;5022647;28;20280;-62
2022/05/05 04:35:36;;;;;;;12.38;7.50;;;;;;;;;;5022962;28;20211;-61
2022/05/05 04:38:02;;;;;;;13.27;7.70;;;;;;;;;;5038262;28;20288;-62
2022/05/05 04:40:27;;;;;;;13.43;7.60;;;;;;;;;;5016817;28;20231;-61
2022/05/05 04:42:52;;;;;;;13.95;7.72;;;;;;;;;;5014164;28;20218;-61
2022/05/05 04:45:18;;;;;;;17.33;8.43;;;;;;;;;;5014724;28;20219;-61
2022/05/05 04:47:43;;;;;;;14.85;8.23;;;;;;;;;;5021085;28;20250;-62
2022/05/05 04:50:09;;;;;;;13.63;7.95;;;;;;;;;;5021873;28;20215;-62
2022/05/05 04:52:34;;;;;;;20.83;8.45;;;;;;;;;;5022800;28;20215;-62
2022/05/05 04:55:00;;;;;;;16.65;8.25;;;;;;;;;;5028934;28;20258;-62
2022/05/05 04:57:25;;;;;;;18.55;8.70;;;;;;;;;;5021617;28;20310;-62
2022/05/05 04:59:50;;;;;;;15.32;8.32;;;;;;;;;;5024328;28;20224;-61
2022/05/05 05:02:16;;;;;;;15.57;8.05;;;;;;;;;;5026725;28;20223;-64
2022/05/05 05:04:41;;;;;;;15.97;9.43;;;;;;;;;;5044986;28;20407;-62
2022/05/05 05:07:06;;;;;;;14.43;9.00;;;;;;;;;;5051858;28;20211;-60
2022/05/05 05:09:31;;;;;;;15.88;8.98;;;;;;;;;;5051400;28;20222;-60
2022/05/05 05:11:57;;;;;;;15.00;8.30;;;;;;;;;;5051190;28;20793;-61
2022/05/05 05:14:22;;;;;;;15.15;8.93;;;;;;;;;;5051885;28;20207;-61
2022/05/05 05:16:47;;;;;;;15.52;8.65;;;;;;;;;;5047707;28;20742;-60
2022/05/05 05:19:12;;;;;;;23.83;8.85;;;;;;;;;;5044652;28;20227;-60
2022/05/05 05:21:38;;;;;;;18.42;8.80;;;;;;;;;;5044397;28;20689;-60
2022/05/05 05:24:03;;;;;;;18.08;8.05;;;;;;;;;;5044806;28;20232;-61
2022/05/05 05:26:29;;;;;;;18.38;8.50;;;;;;;;;;5044616;28;20210;-61
2022/05/05 05:28:54;;;;;;;16.52;8.55;;;;;;;;;;5049328;28;20207;-60
2022/05/05 05:31:21;;;;;;;13.45;8.70;;;;;;;;;;5055628;28;20584;-60
2022/05/05 05:33:47;;;;;;;17.02;8.63;;;;;;;;;;5055094;28;20206;-60
2022/05/05 05:36:12;;;;;;;14.13;8.45;;;;;;;;;;5055050;28;20543;-61
2022/05/05 05:38:37;;;;;;;14.27;8.40;;;;;;;;;;5051586;28;20229;-61
2022/05/05 05:41:02;;;;;;;16.08;8.25;;;;;;;;;;5054286;28;20215;-60
2022/05/05 05:43:28;;;;;;;15.80;8.80;;;;;;;;;;5053203;28;20246;-63
2022/05/05 05:45:53;;;;;;;17.55;8.68;;;;;;;;;;5055775;28;20685;-62
2022/05/05 05:48:18;;;;;;;17.65;8.75;;;;;;;;;;5053855;28;20219;-61
2022/05/05 05:50:43;;;;;;;16.92;8.90;;;;;;;;;;5053724;28;20573;-63
2022/05/05 05:53:09;;;;;;;17.75;8.63;;;;;;;;;;5047545;28;20309;-61
2022/05/05 05:55:34;;;;;;;14.93;9.45;;;;;;;;;;5054500;28;20580;-61
2022/05/05 05:57:59;;;;;;;16.90;9.57;;;;;;;;;;5055736;28;20222;-61
2022/05/05 06:00:25;;;;;;;18.00;10.23;;;;;;;;;;5054223;28;20277;-61
2022/05/05 06:05:34;;;;;;;18.58;9.68;;;;;;;;;;5050271;28;20751;-69
2022/05/05 06:07:59;;;;;;;17.77;10.60;;;;;;;;;;5053742;28;20227;-62
2022/05/05 06:10:25;;;;;;;20.15;11.00;;;;;;;;;;5052960;28;20207;-63
2022/05/05 06:12:50;;;;;;;18.50;9.90;;;;;;;;;;5051029;28;20212;-62
2022/05/05 06:15:16;;;;;;;20.35;10.88;;;;;;;;;;5053277;28;20215;-62
2022/05/05 06:17:41;;;;;;;17.55;10.30;;;;;;;;;;5055065;28;20210;-61
2022/05/05 06:20:06;;;;;;;15.02;10.50;;;;;;;;;;5054473;28;20310;-62
2022/05/05 06:22:34;;;;;;;20.55;10.13;;;;;;;;;;5053847;28;20670;-61
2022/05/05 06:24:59;;;;;;;16.58;10.18;;;;;;;;;;5054233;28;20207;-65
2022/05/05 06:27:24;;;;;;;19.08;9.80;;;;;;;;;;5042642;28;20219;-62
2022/05/05 06:29:50;;;;;;;17.92;10.75;;;;;;;;;;5053810;28;20270;-64
2022/05/05 06:32:17;;;;;;;18.00;11.68;;;;;;;;;;5054266;28;20306;-64
2022/05/05 06:34:42;;;;;;;18.38;10.32;;;;;;;;;;5054395;28;20290;-63
2022/05/05 06:37:08;;;;;;;21.02;11.00;;;;;;;;;;5051907;28;20503;-62
2022/05/05 06:39:33;;;;;;;18.00;10.93;;;;;;;;;;5053183;28;20925;-65
2022/05/05 06:41:59;;;;;;;15.05;10.10;;;;;;;;;;5054614;28;20257;-64
2022/05/05 06:44:25;;;;;;;21.98;10.98;;;;;;;;;;5053343;28;20604;-66
2022/05/05 06:46:50;;;;;;;21.25;9.85;;;;;;;;;;5054269;28;20203;-65
2022/05/05 06:49:17;;;;;;;17.45;10.23;;;;;;;;;;5053731;28;20284;-64
2022/05/05 06:51:42;;;;;;;15.85;10.18;;;;;;;;;;5053384;28;20207;-65
2022/05/05 06:54:07;;;;;;;20.30;10.75;;;;;;;;;;5052868;28;20594;-64
2022/05/05 06:56:32;;;;;;;21.67;11.52;;;;;;;;;;5047300;28;20203;-64
2022/05/05 06:58:58;;;;;;;19.20;11.57;;;;;;;;;;5054260;28;20647;-64
2022/05/05 07:01:53;;;;;;;19.25;10.68;;;;;;;;;;5053735;28;20662;-63
2022/05/05 07:07:03;;;;;;;16.90;10.35;;;;;;;;;;5038713;28;20230;-66
2022/05/05 07:12:12;;;;;;;16.58;11.45;;;;;;;;;;5032974;28;20215;-67
2022/05/05 07:14:37;;;;;;;17.30;11.30;;;;;;;;;;5036905;28;20212;-66
2022/05/05 07:17:03;;;;;;;20.85;11.70;;;;;;;;;;5052174;28;20215;-65
2022/05/05 07:19:28;;;;;;;19.20;11.13;;;;;;;;;;5053056;28;20718;-67
2022/05/05 07:21:53;;;;;;;16.98;10.98;;;;;;;;;;5053468;28;20203;-66
2022/05/05 07:24:19;;;;;;;19.60;11.38;;;;;;;;;;5052861;28;20215;-66
2022/05/05 07:26:44;;;;;;;16.33;10.82;;;;;;;;;;5052700;28;20725;-66
2022/05/05 07:29:09;;;;;;;17.55;11.02;;;;;;;;;;5053113;28;20215;-65
2022/05/05 07:31:34;;;;;;;17.23;11.00;;;;;;;;;;5053742;28;20210;-65
2022/05/05 07:34:00;;;;;;;15.18;10.13;;;;;;;;;;5052198;28;20226;-68
2022/05/05 07:36:25;;;;;;;17.98;11.15;;;;;;;;;;5054232;28;20215;-67
2022/05/05 07:38:51;;;;;;;20.63;11.15;;;;;;;;;;5050053;28;20697;-67
2022/05/05 07:41:16;;;;;;;17.25;10.60;;;;;;;;;;5050991;28;20690;-66
2022/05/05 07:43:41;;;;;;;17.90;10.40;;;;;;;;;;5051655;28;20214;-69
2022/05/05 07:46:07;;;;;;;18.90;11.35;;;;;;;;;;5049271;28;20219;-67
2022/05/05 07:48:32;;;;;;;18.63;10.60;;;;;;;;;;5050911;28;20223;-68
2022/05/05 07:50:58;;;;;;;17.17;9.75;;;;;;;;;;5051354;28;20203;-67
2022/05/05 07:53:23;;;;;;;18.33;10.25;;;;;;;;;;5049263;28;20207;-67
2022/05/05 07:55:49;;;;;;;18.13;9.82;;;;;;;;;;5050974;28;20218;-68
2022/05/05 07:58:14;;;;;;;14.68;9.18;;;;;;;;;;5050205;28;20736;-67
2022/05/05 08:00:39;;;;;;;19.52;10.05;;;;;;;;;;5050051;28;20247;-67
2022/05/05 08:03:05;;;;;;;18.02;9.43;;;;;;;;;;5050674;28;20225;-69
2022/05/05 08:05:30;;;;;;;14.82;9.50;;;;;;;;;;5051151;28;20257;-68
2022/05/05 08:07:55;;;;;;;17.77;10.23;;;;;;;;;;5050715;28;20217;-68
2022/05/05 08:10:21;;;;;;;16.20;9.55;;;;;;;;;;5050070;28;20677;-68
2022/05/05 08:12:46;;;;;;;16.42;10.02;;;;;;;;;;5033216;28;20541;-69
2022/05/05 08:15:12;;;;;;;16.35;9.20;;;;;;;;;;5049521;28;20237;-68
2022/05/05 08:17:38;;;;;;;16.83;8.70;;;;;;;;;;5050631;28;20218;-69
2022/05/05 08:20:04;;;;;;;18.77;9.75;;;;;;;;;;5050264;28;20223;-68
2022/05/05 08:22:29;;;;;;;15.25;8.45;;;;;;;;;;5050181;28;20203;-67
2022/05/05 08:30:22;;;;;;;21.95;11.70;;;;;;;;;;5050135;28;20214;-67
2022/05/05 08:32:47;;;;;;;18.33;10.68;;;;;;;;;;5050682;28;20203;-71
2022/05/05 08:35:12;;;;;;;18.10;10.10;;;;;;;;;;5049314;28;20253;-69
2022/05/05 08:37:38;;;;;;;18.00;11.07;;;;;;;;;;5054247;28;20213;-69
2022/05/05 08:40:04;;;;;;;18.52;10.80;;;;;;;;;;5049566;28;20223;-67
2022/05/05 08:42:29;;;;;;;19.40;10.38;;;;;;;;;;5049623;28;20759;-69
2022/05/05 08:44:54;;;;;;;16.55;9.63;;;;;;;;;;5050293;28;20294;-69
2022/05/05 08:47:21;;;;;;;18.02;10.05;;;;;;;;;;5049742;28;20211;-67
2022/05/05 08:49:47;;;;;;;19.20;11.43;;;;;;;;;;5049606;28;20214;-68
2022/05/05 08:52:12;;;;;;;19.13;11.07;;;;;;;;;;5032174;28;20872;-69
2022/05/05 08:54:38;;;;;;;21.20;11.40;;;;;;;;;;5032124;28;20242;-69
2022/05/05 08:57:04;;;;;;;18.98;10.80;;;;;;;;;;5048517;28;20210;-67
2022/05/05 08:59:29;;;;;;;20.90;10.45;;;;;;;;;;5032311;28;20219;-68
2022/05/05 09:01:55;;;;;;;22.42;11.68;;;;;;;;;;5050241;28;20210;-69
2022/05/05 09:04:20;;;;;;;16.33;11.25;;;;;;;;;;5049182;28;20751;-69
2022/05/05 09:06:47;;;;;;;17.00;10.15;;;;;;;;;;5050047;28;20210;-69
2022/05/05 09:09:23;;;;;;;16.08;10.82;;;;;;;;;;5049390;28;20273;-67
2022/05/05 09:12:05;;;;;;;16.42;10.85;;;;;;;;;;5049209;28;20395;-68
2022/05/05 09:14:37;;;;;;;16.40;11.35;;;;;;;;;;5033047;28;20266;-67
2022/05/05 09:17:03;;;;;;;16.70;11.45;;;;;;;;;;5032554;28;20280;-66
2022/05/05 09:19:28;;;;;;;19.17;11.70;;;;;;;;;;5049296;28;20261;-68
2022/05/05 09:21:54;;;;;;;19.48;12.10;;;;;;;;;;5049900;28;20292;-68
2022/05/05 09:24:35;;;;;;;18.52;11.23;;;;;;;;;;5048873;28;20203;-68
2022/05/05 09:27:13;;;;;;;17.40;12.23;;;;;;;;;;5048871;28;20292;-66
2022/05/05 09:29:39;;;;;;;17.05;11.93;;;;;;;;;;5042415;28;20234;-66
2022/05/05 09:32:13;;;;;;;18.50;12.75;;;;;;;;;;5048628;28;20573;-66
2022/05/05 09:34:39;;;;;;;23.88;12.50;;;;;;;;;;5049905;28;20213;-68
2022/05/05 09:37:23;;;;;;;20.58;12.65;;;;;;;;;;5049242;28;20219;-68
2022/05/05 09:39:52;;;;;;;19.52;11.82;;;;;;;;;;5049117;28;20215;-67
2022/05/05 09:42:36;;;;;;;18.77;11.00;;;;;;;;;;5031111;28;20635;-67
2022/05/05 09:45:16;;;;;;;20.95;12.40;;;;;;;;;;5049302;28;20572;-65
2022/05/05 09:47:43;;;;;;;19.67;12.70;;;;;;;;;;5050016;28;20238;-69
2022/05/05 09:50:09;;;;;;;18.73;12.80;;;;;;;;;;5049213;28;20211;-68
2022/05/05 09:58:08;;;;;;;23.58;13.25;;;;;;;;;;5049000;28;20646;-68
2022/05/05 10:05:49;;;;;;;18.75;12.43;;;;;;;;;;5049797;28;20222;-67
2022/05/05 10:08:16;;;;;;;18.40;11.98;;;;;;;;;;5031382;28;20207;-67
2022/05/05 10:10:42;;;;;;;19.15;11.80;;;;;;;;;;5053324;28;20211;-66
2022/05/05 10:13:08;;;;;;;20.33;12.27;;;;;;;;;;5031731;28;20278;-67
2022/05/05 10:15:33;;;;;;;21.25;12.23;;;;;;;;;;5052457;28;20290;-67
2022/05/05 10:18:00;;;;;;;18.08;11.52;;;;;;;;;;5052762;28;20253;-67
2022/05/05 10:20:25;;;;;;;17.50;13.10;;;;;;;;;;5052078;28;20215;-70
2022/05/05 10:22:54;;;;;;;19.08;12.10;;;;;;;;;;5052597;28;20214;-67
2022/05/05 10:25:22;;;;;;;19.58;12.70;;;;;;;;;;5034762;28;20276;-68
2022/05/05 10:27:48;;;;;;;19.38;12.40;;;;;;;;;;5034311;28;20207;-66
2022/05/05 10:30:15;;;;;;;23.17;12.75;;;;;;;;;;5052412;28;20211;-65
2022/05/05 10:32:40;;;;;;;17.33;10.68;;;;;;;;;;5052726;28;20636;-65
2022/05/05 10:35:11;;;;;;;21.05;12.52;;;;;;;;;;5051627;28;20211;-68
2022/05/05 10:37:37;;;;;;;19.85;12.10;;;;;;;;;;5052803;28;20625;-67
2022/05/05 10:40:03;;;;;;;19.98;13.07;;;;;;;;;;5052274;28;20319;-66
2022/05/05 10:42:30;;;;;;;21.27;12.68;;;;;;;;;;5057496;28;20202;-67
2022/05/05 10:45:02;;;;;;;19.55;11.20;;;;;;;;;;5072777;28;20735;-68
2022/05/05 10:47:48;;;;;;;16.10;12.05;;;;;;;;;;5072062;28;20689;-67
2022/05/05 10:50:28;;;;;;;20.75;11.80;;;;;;;;;;5058613;28;20211;-66
2022/05/05 10:52:54;;;;;;;23.48;12.10;;;;;;;;;;5052387;28;20207;-66
2022/05/05 10:55:21;;;;;;;18.15;11.45;;;;;;;;;;5051843;28;20235;-66
2022/05/05 10:57:46;;;;;;;18.13;11.18;;;;;;;;;;5051085;28;20730;-67
2022/05/05 11:00:13;;;;;;;14.70;10.82;;;;;;;;;;5051556;28;20313;-68
2022/05/05 11:02:39;;;;;;;15.45;10.65;;;;;;;;;;5051590;28;20682;-69
2022/05/05 11:05:20;;;;;;;19.17;12.20;;;;;;;;;;5051791;28;20218;-67
2022/05/05 11:07:49;;;;;;;18.45;11.80;;;;;;;;;;5052218;28;20210;-68
2022/05/05 11:10:46;;;;;;;18.08;11.38;;;;;;;;;;5050971;28;20207;-67
2022/05/05 11:13:30;;;;;;;17.58;11.00;;;;;;;;;;5039401;28;20442;-67
2022/05/05 11:21:32;;;;;;;15.90;10.73;;;;;;;;;;5045983;28;20257;-67
2022/05/05 11:21:48;;;;;;;13.85;9.00;;;;;;;;;;5051242;28;20218;-66
2022/05/05 11:24:14;;;;;;;15.57;10.85;;;;;;;;;;5050597;28;20211;-66
2022/05/05 11:26:39;;;;;;;14.60;9.52;;;;;;;;;;5034009;28;20284;-65
2022/05/05 11:29:14;;;;;;;15.07;9.55;;;;;;;;;;5050889;28;20215;-68
2022/05/05 11:31:39;;;;;;;15.27;9.32;;;;;;;;;;5050727;28;20213;-68
2022/05/05 11:34:05;;;;;;;15.18;8.30;;;;;;;;;;5051453;28;20211;-66
2022/05/05 11:36:32;;;;;;;14.73;8.55;;;;;;;;;;5051728;28;20215;-67
2022/05/05 11:38:58;;;;;;;12.10;7.90;;;;;;;;;;5050783;28;20219;-67
2022/05/05 11:41:23;;;;;;;12.35;8.35;;;;;;;;;;5050684;28;20213;-68
2022/05/05 11:46:33;;;;;;;14.15;9.55;;;;;;;;;;5050301;28;20227;-65
2022/05/05 11:48:58;;;;;;;14.52;10.10;;;;;;;;;;5051189;28;20211;-67
2022/05/05 11:51:24;;;;;;;15.27;9.15;;;;;;;;;;5050965;28;20203;-65
2022/05/05 11:53:49;;;;;;;12.93;8.25;;;;;;;;;;5049788;28;20222;-65
2022/05/05 11:56:15;;;;;;;11.52;8.60;;;;;;;;;;5050704;28;20633;-67
2022/05/05 12:01:41;;;;;;;12.57;8.02;;;;;;;;;;5046499;28;20697;-67
2022/05/05 12:04:08;;;;;;;11.07;7.40;;;;;;;;;;5050162;28;20223;-66
2022/05/05 12:06:33;;;;;;;15.02;8.70;;;;;;;;;;5050213;28;20219;-67
2022/05/05 12:08:59;;;;;;;14.73;8.07;;;;;;;;;;5033301;28;20735;-66
2022/05/05 12:11:26;;;;;;;11.68;8.68;;;;;;;;;;5050422;28;20214;-67
2022/05/05 12:13:51;;;;;;;14.93;9.10;;;;;;;;;;5042371;28;20303;-65
2022/05/05 12:16:17;;;;;;;13.20;9.18;;;;;;;;;;5032523;28;20314;-66
2022/05/05 12:18:48;;;;;;;15.07;10.18;;;;;;;;;;5050877;28;20302;-66
2022/05/05 12:21:20;;;;;;;15.25;9.93;;;;;;;;;;5049365;28;20715;-68
2022/05/05 12:23:54;;;;;;;15.55;9.77;;;;;;;;;;5033151;28;20207;-67
2022/05/05 12:26:19;;;;;;;13.82;7.95;;;;;;;;;;5050099;28;20211;-65
2022/05/05 12:28:51;;;;;;;20.92;9.75;;;;;;;;;;5050095;28;20211;-66
2022/05/05 12:31:21;;;;;;;14.40;9.43;;;;;;;;;;5049334;28;20211;-67
2022/05/05 12:33:47;;;;;;;14.57;8.15;;;;;;;;;;5050937;28;20206;-67
2022/05/05 12:36:13;;;;;;;13.45;8.15;;;;;;;;;;5049362;28;20207;-67
2022/05/05 12:38:39;;;;;;;14.85;8.20;;;;;;;;;;5050649;28;20207;-67
2022/05/05 12:41:05;;;;;;;14.88;9.18;;;;;;;;;;5049631;28;20294;-66
2022/05/05 12:43:31;;;;;;;15.10;8.90;;;;;;;;;;5032208;28;20215;-66
2022/05/05 12:46:00;;;;;;;12.25;9.05;;;;;;;;;;5050036;28;20542;-67
2022/05/05 12:48:25;;;;;;;13.18;8.60;;;;;;;;;;5031448;28;20225;-66
2022/05/05 12:50:52;;;;;;;14.43;9.20;;;;;;;;;;5050282;28;20219;-67
2022/05/05 13:01:32;;;;;;;17.63;9.98;;;;;;;;;;5034486;28;20692;-66
2022/05/05 13:03:58;;;;;;;15.40;9.85;;;;;;;;;;5049243;28;20206;-66
2022/05/05 13:06:24;;;;;;;13.32;8.90;;;;;;;;;;5049671;28;20245;-66
2022/05/05 13:08:50;;;;;;;14.20;8.88;;;;;;;;;;5050222;28;20262;-67
2022/05/05 13:11:16;;;;;;;13.30;9.25;;;;;;;;;;5048772;28;20211;-67
2022/05/05 13:13:42;;;;;;;15.85;10.43;;;;;;;;;;5047251;28;20207;-66
2022/05/05 13:16:07;;;;;;;14.45;9.90;;;;;;;;;;5049239;28;20217;-66
2022/05/05 13:18:32;;;;;;;14.50;9.02;;;;;;;;;;5049401;28;20682;-64
2022/05/05 13:20:58;;;;;;;12.85;8.82;;;;;;;;;;5049918;28;20223;-65
2022/05/05 13:23:23;;;;;;;14.50;8.90;;;;;;;;;;5048982;28;20230;-66
2022/05/05 13:25:48;;;;;;;13.90;9.13;;;;;;;;;;5050433;28;20621;-67
2022/05/05 13:28:13;;;;;;;13.10;8.60;;;;;;;;;;5049633;28;20238;-67
2022/05/05 13:30:39;;;;;;;15.05;9.90;;;;;;;;;;5049247;28;20257;-67
2022/05/05 13:33:04;;;;;;;13.85;9.00;;;;;;;;;;5049696;28;20732;-67
2022/05/05 13:35:29;;;;;;;13.50;9.10;;;;;;;;;;5050484;28;20293;-66
2022/05/05 13:37:58;;;;;;;13.75;9.55;;;;;;;;;;5031370;28;20739;-66
2022/05/05 13:40:23;;;;;;;15.77;9.65;;;;;;;;;;5049388;28;20306;-67
2022/05/05 13:42:49;;;;;;;14.07;9.45;;;;;;;;;;5050064;28;20504;-67
2022/05/05 13:45:14;;;;;;;14.88;9.73;;;;;;;;;;5053847;28;20215;-66
2022/05/05 13:47:39;;;;;;;14.60;9.38;;;;;;;;;;5053377;28;20218;-67
2022/05/05 13:50:05;;;;;;;13.32;9.05;;;;;;;;;;5053287;28;20576;-65
2022/05/05 13:52:31;;;;;;;13.43;8.82;;;;;;;;;;5053013;28;20211;-66
2022/05/05 13:54:56;;;;;;;13.25;9.55;;;;;;;;;;5053024;28;20226;-67
2022/05/05 13:57:21;;;;;;;16.77;8.88;;;;;;;;;;5052817;28;20334;-66
2022/05/05 13:59:47;;;;;;;15.65;9.20;;;;;;;;;;5052744;28;20650;-66
2022/05/05 14:02:12;;;;;;;14.07;9.23;;;;;;;;;;5052937;28;20214;-67
2022/05/05 14:04:37;;;;;;;15.88;8.98;;;;;;;;;;5053264;28;20211;-67
2022/05/05 14:07:03;;;;;;;12.23;8.60;;;;;;;;;;5051952;28;20245;-65
2022/05/05 14:12:12;;;;;;;14.95;8.50;;;;;;;;;;5052717;28;20242;-66
2022/05/05 14:14:38;;;;;;;11.80;8.93;;;;;;;;;;5040065;28;20230;-66
2022/05/05 14:17:04;;;;;;;14.60;8.90;;;;;;;;;;5052334;28;20242;-66
2022/05/05 14:19:29;;;;;;;11.35;8.07;;;;;;;;;;5035272;28;20219;-67
2022/05/05 14:21:55;;;;;;;13.23;7.90;;;;;;;;;;5034374;28;20219;-66
2022/05/05 14:24:20;;;;;;;12.07;8.20;;;;;;;;;;5052465;28;20218;-66
2022/05/05 14:26:47;;;;;;;13.13;8.30;;;;;;;;;;5051908;28;20225;-67
2022/05/05 14:29:12;;;;;;;11.15;7.93;;;;;;;;;;5052374;28;20748;-67
2022/05/05 14:31:37;;;;;;;11.77;7.97;;;;;;;;;;5053051;28;20211;-67
2022/05/05 14:34:03;;;;;;;12.23;7.80;;;;;;;;;;5051521;28;20578;-66
2022/05/05 14:36:29;;;;;;;12.98;7.53;;;;;;;;;;5052537;28;20603;-67
2022/05/05 14:38:54;;;;;;;12.30;8.18;;;;;;;;;;5052415;28;20215;-66
2022/05/05 14:41:20;;;;;;;13.88;7.25;;;;;;;;;;5051615;28;20222;-67
2022/05/05 14:43:45;;;;;;;12.23;7.13;;;;;;;;;;5052632;28;20230;-67
2022/05/05 14:46:11;;;;;;;12.13;7.20;;;;;;;;;;5052196;28;20246;-67
2022/05/05 14:48:36;;;;;;;10.43;7.03;;;;;;;;;;5033143;28;20277;-67
2022/05/05 14:51:02;;;;;;;11.38;7.07;;;;;;;;;;5052096;28;20298;-66
2022/05/05 14:53:27;;;;;;;11.02;6.70;;;;;;;;;;5052052;28;20289;-67
2022/05/05 14:55:52;;;;;;;10.93;5.95;;;;;;;;;;5051341;28;20247;-67
2022/05/05 14:58:18;;;;;;;10.43;6.57;;;;;;;;;;5051391;28;20258;-66
2022/05/05 15:00:43;;;;;;;10.20;6.90;;;;;;;;;;5051260;28;20250;-66
2022/05/05 15:03:08;;;;;;;12.80;7.30;;;;;;;;;;5037654;28;20259;-66
2022/05/05 15:05:34;;;;;;;11.52;6.45;;;;;;;;;;5034200;28;20243;-66
2022/05/05 15:08:00;;;;;;;12.07;6.97;;;;;;;;;;5037539;28;20881;-66
2022/05/05 15:10:25;;;;;;;10.98;6.18;;;;;;;;;;5011913;28;20268;-67
2022/05/05 15:12:52;;;;;;;11.18;6.55;;;;;;;;;;5047079;28;20690;-67
2022/05/05 15:15:17;;;;;;;10.57;6.85;;;;;;;;;;5046019;28;20211;-67
2022/05/05 15:17:43;;;;;;;11.07;6.85;;;;;;;;;;5045087;28;20221;-68